createdAt,value
2018-09-30T00:01:40.634Z,4.33
2018-09-30T00:04:10.300Z,3.75
2018-09-30T00:06:39.918Z,4.67
2018-09-30T00:09:10.218Z,4.40
2018-09-30T00:11:40.035Z,4.45
2018-09-30T00:14:09.684Z,4.47
2018-09-30T00:16:39.685Z,3.80
2018-09-30T00:19:09.593Z,4.50
2018-09-30T00:21:39.253Z,3.90
2018-09-30T00:24:13.866Z,4.00
2018-09-30T00:26:48.792Z,3.98
2018-09-30T00:29:18.600Z,3.87
2018-09-30T00:31:48.330Z,3.50
2018-09-30T00:34:23.300Z,4.60
2018-09-30T00:36:54.023Z,4.20
2018-09-30T00:39:23.834Z,4.20
2018-09-30T00:41:53.825Z,5.03
2018-09-30T00:44:24.006Z,4.08
2018-09-30T00:46:54.117Z,3.75
2018-09-30T00:49:23.896Z,3.85
2018-09-30T00:51:53.705Z,4.67
2018-09-30T00:54:23.599Z,3.85
2018-09-30T00:56:53.344Z,4.05
2018-09-30T00:59:22.978Z,3.98
2018-09-30T01:01:52.622Z,4.65
2018-09-30T01:04:22.251Z,4.15
2018-09-30T01:06:51.970Z,4.22
2018-09-30T01:09:21.753Z,3.75
2018-09-30T01:11:51.466Z,3.77
2018-09-30T01:14:21.403Z,3.75
2018-09-30T01:16:51.059Z,3.45
2018-09-30T01:19:20.697Z,5.03
2018-09-30T01:21:50.378Z,4.65
2018-09-30T01:24:20.221Z,4.47
2018-09-30T01:26:49.945Z,4.97
2018-09-30T01:29:19.621Z,4.40
2018-09-30T01:31:49.269Z,5.10
2018-09-30T01:34:19.043Z,4.47
2018-09-30T01:36:48.744Z,4.62
2018-09-30T01:39:18.420Z,4.17
2018-09-30T01:41:48.060Z,4.17
2018-09-30T01:44:17.713Z,3.98
2018-09-30T01:46:47.466Z,3.83
2018-09-30T01:49:17.134Z,4.45
2018-09-30T01:51:56.602Z,3.85
2018-09-30T01:54:26.267Z,4.15
2018-09-30T01:56:56.090Z,2.87
2018-09-30T01:59:25.854Z,3.72
2018-09-30T02:01:55.574Z,3.70
2018-09-30T02:04:25.272Z,4.37
2018-09-30T02:06:55.186Z,3.70
2018-09-30T02:09:25.007Z,3.72
2018-09-30T02:11:54.798Z,4.15
2018-09-30T02:14:24.485Z,4.20
2018-09-30T02:16:54.213Z,4.40
2018-09-30T02:19:23.954Z,3.67
2018-09-30T02:21:53.734Z,3.70
2018-09-30T02:24:23.458Z,3.75
2018-09-30T02:26:53.157Z,3.92
2018-09-30T02:29:22.842Z,3.80
2018-09-30T02:31:52.543Z,3.80
2018-09-30T02:34:22.266Z,3.95
2018-09-30T02:36:51.953Z,4.20
2018-09-30T02:39:21.667Z,4.00
2018-09-30T02:41:51.464Z,3.65
2018-09-30T02:44:21.171Z,3.83
2018-09-30T02:46:50.835Z,3.33
2018-09-30T02:49:20.492Z,4.03
2018-09-30T02:51:50.114Z,3.45
2018-09-30T02:54:19.958Z,3.85
2018-09-30T02:56:50.098Z,4.78
2018-09-30T02:59:19.825Z,5.15
2018-09-30T03:01:49.837Z,3.33
2018-09-30T03:04:19.701Z,3.33
2018-09-30T03:06:54.701Z,3.83
2018-09-30T03:09:24.353Z,3.87
2018-09-30T03:11:54.150Z,3.65
2018-09-30T03:14:23.827Z,3.55
2018-09-30T03:16:53.672Z,3.92
2018-09-30T03:19:23.473Z,4.60
2018-09-30T03:21:53.121Z,3.87
2018-09-30T03:24:22.903Z,5.05
2018-09-30T03:26:52.545Z,4.30
2018-09-30T03:29:22.171Z,4.65
2018-09-30T03:31:52.090Z,3.72
2018-09-30T03:34:21.853Z,4.00
2018-09-30T03:36:51.790Z,5.37
2018-09-30T03:39:21.513Z,3.83
2018-09-30T03:41:51.216Z,4.08
2018-09-30T03:44:20.836Z,3.55
2018-09-30T03:46:50.534Z,4.33
2018-09-30T03:49:20.180Z,4.15
2018-09-30T03:51:49.880Z,5.65
2018-09-30T03:54:19.589Z,3.55
2018-09-30T03:56:49.321Z,3.98
2018-09-30T03:59:18.986Z,4.35
2018-09-30T04:01:48.818Z,4.20
2018-09-30T04:04:18.493Z,4.15
2018-09-30T04:06:48.213Z,4.25
2018-09-30T04:09:17.998Z,4.45
2018-09-30T04:11:47.663Z,4.05
2018-09-30T04:14:17.399Z,3.80
2018-09-30T04:16:47.192Z,4.20
2018-09-30T04:19:16.829Z,3.50
2018-09-30T04:21:46.465Z,3.80
2018-09-30T04:24:16.338Z,4.00
2018-09-30T04:26:46.010Z,4.15
2018-09-30T04:29:15.752Z,3.45
2018-09-30T04:31:45.553Z,4.25
2018-09-30T04:34:15.194Z,3.70
2018-09-30T04:36:44.836Z,4.00
2018-09-30T04:39:14.512Z,4.10
2018-09-30T04:41:44.177Z,4.17
2018-09-30T04:44:13.917Z,3.60
2018-09-30T04:46:43.661Z,4.15
2018-09-30T04:49:13.514Z,5.25
2018-09-30T04:51:43.164Z,4.20
2018-09-30T04:54:12.853Z,4.50
2018-09-30T04:56:42.938Z,3.95
2018-09-30T04:59:12.618Z,3.85
2018-09-30T05:01:42.357Z,4.12
2018-09-30T05:04:12.034Z,4.08
2018-09-30T05:06:41.793Z,4.35
2018-09-30T05:09:11.709Z,3.50
2018-09-30T05:11:41.377Z,4.12
2018-09-30T05:14:11.312Z,4.87
2018-09-30T05:16:41.213Z,4.35
2018-09-30T05:19:10.878Z,3.72
2018-09-30T05:21:40.595Z,3.87
2018-09-30T05:24:10.337Z,3.95
2018-09-30T05:26:39.969Z,3.60
2018-09-30T05:29:09.881Z,3.25
2018-09-30T05:31:39.554Z,4.70
2018-09-30T05:34:09.193Z,3.85
2018-09-30T05:36:38.848Z,4.22
2018-09-30T05:39:10.513Z,3.65
2018-09-30T05:41:40.421Z,4.28
2018-09-30T05:44:10.447Z,3.70
2018-09-30T05:46:40.469Z,3.45
2018-09-30T05:49:10.465Z,4.28
2018-09-30T05:51:40.126Z,3.62
2018-09-30T05:54:09.844Z,3.22
2018-09-30T05:56:39.541Z,5.20
2018-09-30T05:59:09.528Z,3.77
2018-09-30T06:01:39.241Z,4.00
2018-09-30T06:04:09.488Z,4.20
2018-09-30T06:06:40.198Z,4.20
2018-09-30T06:09:14.782Z,4.72
2018-09-30T06:11:45.866Z,3.85
2018-09-30T06:14:16.357Z,4.22
2018-09-30T06:16:45.933Z,4.37
2018-09-30T06:19:15.608Z,5.05
2018-09-30T06:21:45.336Z,4.33
2018-09-30T06:24:15.026Z,4.05
2018-09-30T06:26:44.675Z,4.17
2018-09-30T06:29:14.433Z,4.40
2018-09-30T06:31:44.156Z,6.12
2018-09-30T06:34:13.869Z,4.00
2018-09-30T06:36:43.504Z,3.85
2018-09-30T06:39:13.235Z,4.20
2018-09-30T06:41:43.058Z,3.95
2018-09-30T06:44:12.723Z,4.08
2018-09-30T06:46:42.456Z,4.12
2018-09-30T06:49:12.450Z,3.72
2018-09-30T06:51:42.278Z,4.28
2018-09-30T06:54:11.956Z,3.92
2018-09-30T06:56:41.667Z,4.35
2018-09-30T06:59:11.336Z,3.87
2018-09-30T07:01:41.105Z,4.55
2018-09-30T07:04:10.887Z,3.77
2018-09-30T07:06:40.667Z,3.25
2018-09-30T07:09:10.498Z,4.65
2018-09-30T07:11:40.235Z,3.50
2018-09-30T07:14:09.932Z,3.87
2018-09-30T07:16:39.623Z,3.00
2018-09-30T07:19:10.176Z,3.37
2018-09-30T07:21:39.983Z,4.05
2018-09-30T07:24:09.977Z,4.22
2018-09-30T07:26:39.715Z,3.77
2018-09-30T07:29:09.506Z,4.55
2018-09-30T07:31:39.374Z,4.47
2018-09-30T07:34:09.041Z,4.17
2018-09-30T07:36:39.006Z,4.42
2018-09-30T07:39:10.769Z,4.08
2018-09-30T07:41:40.581Z,4.28
2018-09-30T07:44:10.467Z,4.72
2018-09-30T07:46:40.167Z,4.30
2018-09-30T07:49:09.888Z,4.12
2018-09-30T07:51:39.563Z,4.62
2018-09-30T07:54:09.320Z,4.92
2018-09-30T07:56:39.018Z,4.65
2018-09-30T07:59:09.113Z,4.72
2018-09-30T08:01:38.923Z,4.45
2018-09-30T08:04:09.011Z,3.90
2018-09-30T08:06:38.672Z,4.10
2018-09-30T08:09:09.405Z,3.77
2018-09-30T08:11:39.056Z,4.33
2018-09-30T08:14:08.967Z,4.10
2018-09-30T08:16:38.729Z,4.35
2018-09-30T08:19:08.562Z,5.10
2018-09-30T08:21:38.249Z,5.03
2018-09-30T08:24:07.721Z,3.77
2018-09-30T08:26:37.338Z,4.28
2018-09-30T08:29:07.279Z,5.00
2018-09-30T08:31:36.964Z,4.22
2018-09-30T08:34:06.738Z,3.60
2018-09-30T08:36:36.423Z,3.80
2018-09-30T08:39:08.921Z,4.03
2018-09-30T08:41:38.609Z,3.50
2018-09-30T08:44:08.497Z,3.50
2018-09-30T08:46:38.285Z,3.90
2018-09-30T08:49:08.122Z,3.97
2018-09-30T08:51:37.753Z,4.30
2018-09-30T08:54:07.589Z,4.67
2018-09-30T08:56:37.458Z,4.37
2018-09-30T08:59:07.142Z,4.03
2018-09-30T09:01:36.865Z,4.73
2018-09-30T09:04:06.965Z,4.53
2018-09-30T09:06:36.982Z,4.03
2018-09-30T09:09:12.062Z,4.70
2018-09-30T09:11:41.876Z,4.13
2018-09-30T09:14:11.764Z,4.60
2018-09-30T09:16:41.567Z,4.53
2018-09-30T09:19:11.318Z,4.57
2018-09-30T09:21:40.990Z,4.90
2018-09-30T09:24:10.776Z,4.70
2018-09-30T09:26:40.548Z,4.50
2018-09-30T09:29:10.285Z,4.03
2018-09-30T09:31:40.004Z,4.10
2018-09-30T09:34:09.790Z,3.87
2018-09-30T09:36:40.388Z,4.20
2018-09-30T09:39:11.131Z,4.13
2018-09-30T09:41:40.872Z,4.13
2018-09-30T09:44:10.671Z,4.57
2018-09-30T09:46:40.486Z,4.10
2018-09-30T09:49:10.231Z,4.67
2018-09-30T09:51:40.074Z,4.47
2018-09-30T09:54:09.768Z,4.93
2018-09-30T09:56:39.505Z,6.17
2018-09-30T09:59:09.356Z,4.47
2018-09-30T10:01:38.990Z,3.70
2018-09-30T10:04:08.747Z,3.50
2018-09-30T10:06:38.460Z,3.47
2018-09-30T10:09:08.292Z,4.07
2018-09-30T10:11:38.076Z,3.80
2018-09-30T10:14:07.790Z,3.90
2018-09-30T10:16:37.618Z,3.70
2018-09-30T10:19:07.417Z,3.90
2018-09-30T10:21:37.121Z,3.80
2018-09-30T10:24:06.809Z,4.17
2018-09-30T10:26:36.478Z,3.80
2018-09-30T10:29:06.293Z,3.50
2018-09-30T10:31:36.101Z,3.10
2018-09-30T10:34:05.976Z,2.83
2018-09-30T10:36:36.777Z,3.87
2018-09-30T10:39:11.341Z,3.20
2018-09-30T10:41:41.457Z,3.67
2018-09-30T10:44:11.476Z,3.10
2018-09-30T10:46:41.360Z,2.40
2018-09-30T10:49:11.085Z,3.07
2018-09-30T10:51:40.855Z,4.13
2018-09-30T10:54:10.639Z,3.40
2018-09-30T10:56:40.369Z,2.90
2018-09-30T10:59:10.066Z,2.77
2018-09-30T11:01:39.740Z,4.17
2018-09-30T11:04:09.808Z,3.50
2018-09-30T11:06:39.591Z,3.10
2018-09-30T11:09:09.341Z,3.03
2018-09-30T11:11:39.130Z,3.20
2018-09-30T11:14:08.870Z,3.20
2018-09-30T11:16:38.584Z,2.20
2018-09-30T11:19:07.940Z,2.70
2018-09-30T11:21:37.740Z,2.37
2018-09-30T11:24:07.751Z,2.63
2018-09-30T11:26:37.613Z,3.27
2018-09-30T11:29:07.628Z,3.07
2018-09-30T11:31:37.455Z,2.93
2018-09-30T11:34:07.492Z,2.50
2018-09-30T11:36:37.219Z,3.50
2018-09-30T11:39:10.577Z,3.27
2018-09-30T11:41:41.207Z,2.90
2018-09-30T11:44:10.998Z,2.23
2018-09-30T11:46:41.040Z,3.07
2018-09-30T11:49:11.114Z,2.47
2018-09-30T11:51:40.757Z,2.90
2018-09-30T11:54:10.412Z,3.47
2018-09-30T11:56:40.086Z,3.40
2018-09-30T11:59:09.809Z,3.23
2018-09-30T12:01:39.453Z,3.20
2018-09-30T12:04:09.378Z,3.73
2018-09-30T12:06:39.077Z,3.20
2018-09-30T12:09:10.082Z,3.00
2018-09-30T12:11:39.898Z,3.50
2018-09-30T12:14:09.602Z,3.73
2018-09-30T12:16:39.555Z,3.27
2018-09-30T12:19:09.224Z,3.50
2018-09-30T12:21:38.989Z,3.57
2018-09-30T12:24:09.041Z,3.77
2018-09-30T12:26:38.739Z,3.63
2018-09-30T12:29:08.482Z,3.80
2018-09-30T12:31:38.197Z,3.83
2018-09-30T12:34:07.980Z,3.73
2018-09-30T12:36:37.682Z,3.20
2018-09-30T12:39:09.764Z,3.00
2018-09-30T12:41:39.561Z,2.90
2018-09-30T12:44:09.434Z,3.90
2018-09-30T12:46:39.200Z,4.17
2018-09-30T12:49:08.972Z,3.60
2018-09-30T12:51:38.741Z,3.30
2018-09-30T12:54:08.697Z,3.50
2018-09-30T12:56:38.484Z,3.43
2018-09-30T12:59:08.307Z,3.87
2018-09-30T13:01:38.079Z,3.47
2018-09-30T13:04:08.543Z,3.53
2018-09-30T13:06:38.274Z,3.00
2018-09-30T13:09:09.846Z,3.17
2018-09-30T13:11:39.914Z,4.00
2018-09-30T13:14:09.839Z,3.53
2018-09-30T13:16:39.568Z,3.50
2018-09-30T13:19:09.317Z,3.13
2018-09-30T13:21:39.115Z,3.50
2018-09-30T13:24:09.002Z,3.17
2018-09-30T13:26:38.738Z,3.23
2018-09-30T13:29:08.455Z,3.43
2018-09-30T13:31:38.184Z,3.83
2018-09-30T13:34:08.210Z,3.60
2018-09-30T13:36:38.062Z,4.30
2018-09-30T13:39:10.749Z,3.37
2018-09-30T13:41:41.099Z,4.90
2018-09-30T13:44:10.893Z,3.67
2018-09-30T13:46:40.582Z,3.73
2018-09-30T13:49:10.322Z,2.97
2018-09-30T13:51:40.021Z,3.17
2018-09-30T13:54:09.696Z,3.40
2018-09-30T13:56:39.514Z,3.63
2018-09-30T13:59:09.287Z,3.80
2018-09-30T14:01:38.975Z,3.13
2018-09-30T14:04:09.144Z,2.97
2018-09-30T14:06:38.792Z,3.23
2018-09-30T14:09:10.609Z,2.57
2018-09-30T14:11:40.624Z,3.40
2018-09-30T14:14:10.379Z,3.10
2018-09-30T14:16:40.212Z,2.77
2018-09-30T14:19:10.089Z,3.30
2018-09-30T14:21:39.808Z,2.53
2018-09-30T14:24:09.601Z,2.97
2018-09-30T14:26:39.325Z,2.73
2018-09-30T14:29:09.010Z,2.40
2018-09-30T14:31:38.784Z,2.00
2018-09-30T14:34:08.832Z,2.70
2018-09-30T14:36:38.554Z,2.63
2018-09-30T14:39:12.214Z,3.17
2018-09-30T14:41:42.043Z,2.57
2018-09-30T14:44:11.986Z,2.87
2018-09-30T14:46:41.673Z,2.60
2018-09-30T14:49:11.445Z,3.03
2018-09-30T14:51:41.179Z,2.93
2018-09-30T14:54:10.889Z,3.40
2018-09-30T14:56:40.615Z,3.40
2018-09-30T14:59:10.401Z,3.40
2018-09-30T15:01:40.114Z,3.10
2018-09-30T15:04:09.800Z,4.17
2018-09-30T15:06:39.505Z,2.80
2018-09-30T15:09:10.988Z,3.20
2018-09-30T15:11:41.173Z,3.60
2018-09-30T15:14:10.998Z,2.43
2018-09-30T15:16:40.758Z,3.33
2018-09-30T15:19:10.495Z,3.10
2018-09-30T15:21:40.366Z,3.10
2018-09-30T15:24:10.137Z,3.00
2018-09-30T15:26:39.898Z,3.33
2018-09-30T15:29:09.596Z,2.40
2018-09-30T15:31:39.366Z,3.00
2018-09-30T15:34:09.545Z,3.27
2018-09-30T15:36:39.449Z,2.60
2018-09-30T15:39:12.029Z,2.77
2018-09-30T15:41:42.253Z,2.93
2018-09-30T15:44:12.761Z,2.90
2018-09-30T15:46:42.456Z,3.20
2018-09-30T15:49:12.307Z,2.97
2018-09-30T15:51:42.014Z,2.97
2018-09-30T15:54:11.775Z,2.57
2018-09-30T15:56:41.579Z,2.80
2018-09-30T15:59:11.538Z,2.97
2018-09-30T16:01:41.245Z,2.87
2018-09-30T16:04:11.099Z,2.80
2018-09-30T16:06:40.821Z,7.80
2018-09-30T16:09:10.545Z,3.17
2018-09-30T16:11:40.369Z,2.07
2018-09-30T16:14:10.239Z,2.67
2018-09-30T16:16:40.022Z,2.67
2018-09-30T16:19:09.741Z,2.90
2018-09-30T16:21:39.579Z,3.03
2018-09-30T16:24:09.600Z,3.70
2018-09-30T16:26:39.457Z,3.40
2018-09-30T16:29:09.387Z,3.53
2018-09-30T16:31:39.045Z,3.07
2018-09-30T16:34:08.968Z,2.90
2018-09-30T16:36:38.668Z,2.70
2018-09-30T16:39:09.896Z,2.53
2018-09-30T16:41:39.713Z,2.67
2018-09-30T16:44:09.544Z,2.77
2018-09-30T16:46:39.541Z,2.80
2018-09-30T16:49:09.242Z,3.40
2018-09-30T16:51:38.991Z,2.70
2018-09-30T16:54:08.955Z,3.67
2018-09-30T16:56:38.850Z,2.80
2018-09-30T16:59:08.636Z,2.80
2018-09-30T17:01:38.397Z,3.93
2018-09-30T17:04:08.128Z,3.50
2018-09-30T17:06:37.958Z,3.50
2018-09-30T17:09:08.576Z,3.50
2018-09-30T17:11:38.313Z,3.80
2018-09-30T17:14:08.164Z,3.37
2018-09-30T17:16:37.913Z,3.80
2018-09-30T17:19:07.636Z,3.63
2018-09-30T17:21:37.421Z,4.10
2018-09-30T17:24:07.230Z,3.63
2018-09-30T17:26:36.962Z,4.20
2018-09-30T17:29:06.778Z,3.77
2018-09-30T17:31:36.702Z,3.47
2018-09-30T17:34:06.437Z,4.80
2018-09-30T17:36:36.217Z,4.80
2018-09-30T17:39:08.609Z,4.60
2018-09-30T17:41:38.580Z,5.37
2018-09-30T17:44:08.441Z,5.00
2018-09-30T17:46:38.333Z,6.07
2018-09-30T17:49:08.310Z,5.27
2018-09-30T17:51:38.016Z,5.50
2018-09-30T17:54:07.922Z,5.10
2018-09-30T17:56:37.681Z,6.40
2018-09-30T17:59:07.490Z,6.40
2018-09-30T18:01:37.246Z,5.60
2018-09-30T18:04:07.030Z,5.20
2018-09-30T18:06:36.793Z,6.17
2018-09-30T18:09:10.208Z,5.83
2018-09-30T18:11:39.999Z,5.70
2018-09-30T18:14:10.157Z,5.45
2018-09-30T18:16:39.817Z,4.70
2018-09-30T18:19:09.877Z,5.50
2018-09-30T18:21:39.777Z,6.25
2018-09-30T18:24:09.645Z,6.22
2018-09-30T18:26:39.501Z,6.62
2018-09-30T18:29:09.641Z,5.45
2018-09-30T18:31:39.743Z,8.40
2018-09-30T18:34:09.774Z,6.95
2018-09-30T18:36:39.549Z,6.40
2018-09-30T18:39:11.493Z,6.17
2018-09-30T18:41:41.287Z,6.05
2018-09-30T18:44:11.667Z,6.67
2018-09-30T18:46:41.842Z,6.30
2018-09-30T18:49:11.824Z,6.20
2018-09-30T18:51:41.886Z,6.42
2018-09-30T18:54:12.162Z,5.40
2018-09-30T18:56:42.147Z,6.50
2018-09-30T18:59:12.343Z,8.65
2018-09-30T19:01:42.459Z,9.90
2018-09-30T19:04:12.660Z,10.72
2018-09-30T19:06:42.794Z,11.25
2018-09-30T19:09:12.811Z,10.53
2018-09-30T19:11:42.868Z,9.15
2018-09-30T19:14:13.113Z,9.55
2018-09-30T19:16:43.265Z,10.72
2018-09-30T19:19:13.313Z,9.78
2018-09-30T19:21:43.193Z,10.30
2018-09-30T19:24:13.109Z,10.80
2018-09-30T19:26:42.975Z,7.85
2018-09-30T19:29:12.673Z,9.23
2018-09-30T19:31:42.401Z,8.88
2018-09-30T19:34:12.142Z,8.65
2018-09-30T19:36:42.397Z,8.60
2018-09-30T19:39:12.774Z,10.98
2018-09-30T19:41:42.587Z,9.48
2018-09-30T19:44:12.360Z,10.93
2018-09-30T19:46:42.236Z,10.43
2018-09-30T19:49:12.133Z,9.65
2018-09-30T19:51:41.952Z,10.40
2018-09-30T19:54:11.780Z,9.08
2018-09-30T19:56:41.425Z,10.65
2018-09-30T19:59:11.210Z,9.40
2018-09-30T20:01:41.102Z,9.28
2018-09-30T20:04:10.836Z,8.00
2018-09-30T20:06:40.599Z,8.30
2018-09-30T20:09:10.480Z,7.70
2018-09-30T20:11:40.279Z,9.95
2018-09-30T20:14:10.194Z,8.40
2018-09-30T20:16:39.859Z,7.33
2018-09-30T20:19:09.816Z,7.42
2018-09-30T20:21:39.519Z,7.33
2018-09-30T20:24:09.264Z,7.55
2018-09-30T20:26:38.985Z,7.83
2018-09-30T20:29:08.701Z,7.80
2018-09-30T20:31:38.484Z,8.23
2018-09-30T20:34:08.360Z,7.60
2018-09-30T20:36:38.244Z,7.72
2018-09-30T20:39:08.745Z,9.53
2018-09-30T20:41:38.485Z,8.75
2018-09-30T20:44:08.260Z,9.00
2018-09-30T20:46:37.947Z,10.08
2018-09-30T20:49:07.833Z,9.68
2018-09-30T20:51:37.510Z,9.10
2018-09-30T20:54:07.378Z,8.13
2018-09-30T20:56:37.262Z,8.00
2018-09-30T20:59:07.053Z,9.58
2018-09-30T21:01:36.825Z,9.35
2018-09-30T21:04:06.636Z,9.15
2018-09-30T21:06:38.685Z,10.15
2018-09-30T21:09:10.585Z,9.70
2018-09-30T21:11:40.570Z,8.70
2018-09-30T21:14:10.327Z,9.25
2018-09-30T21:16:40.245Z,9.15
2018-09-30T21:19:09.933Z,10.75
2018-09-30T21:21:39.797Z,10.35
2018-09-30T21:24:09.569Z,9.60
2018-09-30T21:26:39.270Z,8.50
2018-09-30T21:29:09.027Z,9.95
2018-09-30T21:31:38.733Z,9.68
2018-09-30T21:34:08.694Z,9.00
2018-09-30T21:36:38.510Z,8.95
2018-09-30T21:39:10.912Z,9.60
2018-09-30T21:41:40.674Z,8.83
2018-09-30T21:44:10.497Z,7.30
2018-09-30T21:46:40.140Z,8.70
2018-09-30T21:49:09.970Z,8.70
2018-09-30T21:51:39.606Z,8.33
2018-09-30T21:54:09.305Z,7.58
2018-09-30T21:56:39.324Z,8.00
2018-09-30T21:59:09.033Z,6.45
2018-09-30T22:01:38.904Z,7.75
2018-09-30T22:04:08.705Z,7.35
2018-09-30T22:06:38.379Z,7.67
2018-09-30T22:09:08.534Z,7.42
2018-09-30T22:11:38.221Z,8.50
2018-09-30T22:14:08.078Z,6.35
2018-09-30T22:16:37.819Z,7.40
2018-09-30T22:19:07.770Z,8.13
2018-09-30T22:21:37.404Z,7.70
2018-09-30T22:24:07.057Z,6.92
2018-09-30T22:26:36.737Z,7.73
2018-09-30T22:29:06.418Z,8.23
2018-09-30T22:31:36.140Z,8.15
2018-09-30T22:34:05.878Z,7.10
2018-09-30T22:36:35.570Z,7.50
2018-09-30T22:39:07.091Z,7.78
2018-09-30T22:41:36.866Z,6.50
2018-09-30T22:44:06.662Z,6.50
2018-09-30T22:46:36.413Z,7.97
2018-09-30T22:49:06.063Z,7.10
2018-09-30T22:51:35.710Z,7.53
2018-09-30T22:54:05.385Z,6.90
2018-09-30T22:56:35.296Z,7.03
2018-09-30T22:59:04.991Z,6.65
2018-09-30T23:01:34.775Z,6.87
2018-09-30T23:04:04.534Z,7.22
2018-09-30T23:06:34.325Z,7.53
2018-09-30T23:09:05.770Z,6.25
2018-09-30T23:11:35.481Z,7.08
2018-09-30T23:14:05.123Z,6.78
2018-09-30T23:16:34.982Z,5.67
2018-09-30T23:19:04.750Z,6.60
2018-09-30T23:21:34.523Z,7.30
2018-09-30T23:24:04.188Z,6.95
2018-09-30T23:26:33.879Z,6.30
2018-09-30T23:29:03.673Z,7.25
2018-09-30T23:31:33.344Z,7.42
2018-09-30T23:34:03.071Z,6.65
2018-09-30T23:36:32.829Z,7.72
2018-09-30T23:39:02.525Z,8.63
2018-09-30T23:41:32.268Z,8.15
2018-09-30T23:44:01.907Z,7.28
2018-09-30T23:46:31.689Z,6.92
2018-09-30T23:49:01.367Z,7.63
2018-09-30T23:51:31.023Z,8.10
2018-09-30T23:54:00.808Z,8.60
2018-09-30T23:56:30.628Z,8.50
2018-09-30T23:59:00.421Z,8.50
